Eagan, Tennessee
Current Conditions -  °F | °C
As of 10:53 AM on Wednesday 26 Nov 2014 (Local Time) from KLOZ Reporting Station
Clear Clear  
Wind Chill: 40°   Ceiling: Unl
Heat Index: 43°   Visibility: 10mi
Dew Point: 30°   Wind: 5mph
Humidity: 60%   Direction: NA
Pressure: 30.08"   Gusts: NA
Location:  36.55°N, 83.98°W
Report Text: KLOZ 261553Z AUTO VRB04KT 10SM CLR 06/M01 A3008 RMK AO2 SLP189 T00611011
Loading
Personal Weather Stations






























Interactive Weather Map New forecast layout! Learn more

10-Day Weather Forecast

Advertisements
Track Severe Weather on mobile